sensor_id;sensor_type;location;lat;lon;timestamp;pressure;altitude;pressure_sealevel;temperature;humidity
76815;BME280;65768;49.906;19.384;2022-12-16T00:00:07;97580.02;;;-3.67;91.64
76815;BME280;65768;49.906;19.384;2022-12-16T00:03:16;97591.46;;;-3.66;91.41
76815;BME280;65768;49.906;19.384;2022-12-16T00:05:47;97591.17;;;-3.65;91.34
76815;BME280;65768;49.906;19.384;2022-12-16T00:08:15;97606.08;;;-3.63;91.41
76815;BME280;65768;49.906;19.384;2022-12-16T00:10:43;97608.66;;;-3.63;91.64
76815;BME280;65768;49.906;19.384;2022-12-16T00:13:20;97610.88;;;-3.62;91.40
76815;BME280;65768;49.906;19.384;2022-12-16T00:15:48;97601.34;;;-3.62;91.59
76815;BME280;65768;49.906;19.384;2022-12-16T00:18:16;97580.08;;;-3.65;91.56
76815;BME280;65768;49.906;19.384;2022-12-16T00:20:48;97580.55;;;-3.67;91.59
76815;BME280;65768;49.906;19.384;2022-12-16T00:23:17;97582.38;;;-3.68;91.58
76815;BME280;65768;49.906;19.384;2022-12-16T00:25:45;97588.09;;;-3.65;91.64
76815;BME280;65768;49.906;19.384;2022-12-16T00:28:16;97588.72;;;-3.63;91.51
76815;BME280;65768;49.906;19.384;2022-12-16T00:30:44;97584.80;;;-3.63;91.66
76815;BME280;65768;49.906;19.384;2022-12-16T00:33:15;97571.02;;;-3.66;91.58
76815;BME280;65768;49.906;19.384;2022-12-16T00:35:44;97574.20;;;-3.68;91.60
76815;BME280;65768;49.906;19.384;2022-12-16T00:38:13;97574.39;;;-3.71;91.42
76815;BME280;65768;49.906;19.384;2022-12-16T00:40:42;97573.05;;;-3.70;91.60
76815;BME280;65768;49.906;19.384;2022-12-16T00:43:10;97575.24;;;-3.71;91.53
76815;BME280;65768;49.906;19.384;2022-12-16T00:45:38;97569.27;;;-3.71;91.53
76815;BME280;65768;49.906;19.384;2022-12-16T00:48:06;97570.32;;;-3.71;91.61
76815;BME280;65768;49.906;19.384;2022-12-16T00:50:35;97566.03;;;-3.71;91.60
76815;BME280;65768;49.906;19.384;2022-12-16T00:53:03;97566.38;;;-3.71;91.76
76815;BME280;65768;49.906;19.384;2022-12-16T00:55:31;97558.60;;;-3.74;91.77
76815;BME280;65768;49.906;19.384;2022-12-16T00:57:59;97555.13;;;-3.75;91.74
76815;BME280;65768;49.906;19.384;2022-12-16T01:00:27;97550.99;;;-3.76;92.12
76815;BME280;65768;49.906;19.384;2022-12-16T01:02:55;97552.70;;;-3.76;92.24
76815;BME280;65768;49.906;19.384;2022-12-16T01:05:23;97551.42;;;-3.75;92.08
76815;BME280;65768;49.906;19.384;2022-12-16T01:07:54;97550.52;;;-3.76;91.96
76815;BME280;65768;49.906;19.384;2022-12-16T01:10:24;97547.33;;;-3.75;92.14
76815;BME280;65768;49.906;19.384;2022-12-16T01:12:52;97544.14;;;-3.78;92.02
76815;BME280;65768;49.906;19.384;2022-12-16T01:15:20;97538.73;;;-3.77;92.12
76815;BME280;65768;49.906;19.384;2022-12-16T01:17:48;97533.29;;;-3.77;92.17
76815;BME280;65768;49.906;19.384;2022-12-16T01:20:16;97527.23;;;-3.75;92.16
76815;BME280;65768;49.906;19.384;2022-12-16T01:22:43;97526.11;;;-3.73;92.12
76815;BME280;65768;49.906;19.384;2022-12-16T01:25:11;97523.83;;;-3.71;91.99
76815;BME280;65768;49.906;19.384;2022-12-16T01:27:40;97511.55;;;-3.71;91.78
76815;BME280;65768;49.906;19.384;2022-12-16T01:30:12;97506.46;;;-3.71;91.91
76815;BME280;65768;49.906;19.384;2022-12-16T01:32:40;97503.39;;;-3.71;91.92
76815;BME280;65768;49.906;19.384;2022-12-16T01:35:08;97496.95;;;-3.70;91.81
76815;BME280;65768;49.906;19.384;2022-12-16T01:37:36;97493.26;;;-3.69;91.75
76815;BME280;65768;49.906;19.384;2022-12-16T01:40:05;97498.98;;;-3.66;91.76
76815;BME280;65768;49.906;19.384;2022-12-16T01:42:33;97499.10;;;-3.64;91.70
76815;BME280;65768;49.906;19.384;2022-12-16T01:47:52;97498.99;;;-3.63;91.63
76815;BME280;65768;49.906;19.384;2022-12-16T01:50:22;97497.30;;;-3.62;91.69
76815;BME280;65768;49.906;19.384;2022-12-16T01:52:53;97494.13;;;-3.65;91.77
76815;BME280;65768;49.906;19.384;2022-12-16T01:55:29;97479.83;;;-3.64;91.86
76815;BME280;65768;49.906;19.384;2022-12-16T01:58:03;97483.45;;;-3.63;91.87
76815;BME280;65768;49.906;19.384;2022-12-16T02:00:33;97479.98;;;-3.61;91.83
76815;BME280;65768;49.906;19.384;2022-12-16T02:03:02;97473.97;;;-3.58;91.86
76815;BME280;65768;49.906;19.384;2022-12-16T02:05:32;97470.79;;;-3.57;91.84
76815;BME280;65768;49.906;19.384;2022-12-16T02:08:09;97469.21;;;-3.58;91.56
76815;BME280;65768;49.906;19.384;2022-12-16T02:13:27;97465.59;;;-3.59;91.70
76815;BME280;65768;49.906;19.384;2022-12-16T02:16:21;97460.13;;;-3.59;91.71
76815;BME280;65768;49.906;19.384;2022-12-16T02:40:29;97426.78;;;-3.55;91.46
76815;BME280;65768;49.906;19.384;2022-12-16T02:43:56;97421.25;;;-3.57;91.63
76815;BME280;65768;49.906;19.384;2022-12-16T02:46:25;97415.60;;;-3.57;91.45
76815;BME280;65768;49.906;19.384;2022-12-16T02:48:54;97413.88;;;-3.58;91.33
76815;BME280;65768;49.906;19.384;2022-12-16T02:51:24;97410.19;;;-3.56;91.49
76815;BME280;65768;49.906;19.384;2022-12-16T02:53:53;97402.75;;;-3.55;91.59
76815;BME280;65768;49.906;19.384;2022-12-16T02:59:23;97405.65;;;-3.55;91.73
76815;BME280;65768;49.906;19.384;2022-12-16T03:02:12;97403.25;;;-3.56;91.95
76815;BME280;65768;49.906;19.384;2022-12-16T03:07:19;97399.52;;;-3.55;91.52
76815;BME280;65768;49.906;19.384;2022-12-16T03:09:49;97396.09;;;-3.56;91.44
76815;BME280;65768;49.906;19.384;2022-12-16T03:12:19;97391.45;;;-3.57;91.59
76815;BME280;65768;49.906;19.384;2022-12-16T03:14:50;97384.42;;;-3.57;91.65
76815;BME280;65768;49.906;19.384;2022-12-16T03:17:21;97382.61;;;-3.56;91.76
76815;BME280;65768;49.906;19.384;2022-12-16T03:20:00;97368.66;;;-3.56;91.72
76815;BME280;65768;49.906;19.384;2022-12-16T03:22:33;97362.10;;;-3.54;91.92
76815;BME280;65768;49.906;19.384;2022-12-16T03:25:05;97361.44;;;-3.53;91.66
76815;BME280;65768;49.906;19.384;2022-12-16T03:27:43;97352.64;;;-3.52;91.82
76815;BME280;65768;49.906;19.384;2022-12-16T03:30:20;97347.39;;;-3.51;91.45
76815;BME280;65768;49.906;19.384;2022-12-16T03:33:18;97344.48;;;-3.51;91.49
76815;BME280;65768;49.906;19.384;2022-12-16T03:36:03;97335.95;;;-3.52;91.66
76815;BME280;65768;49.906;19.384;2022-12-16T03:38:34;97334.45;;;-3.51;91.67
76815;BME280;65768;49.906;19.384;2022-12-16T03:41:05;97328.71;;;-3.50;91.77
76815;BME280;65768;49.906;19.384;2022-12-16T03:43:33;97328.08;;;-3.48;92.04
76815;BME280;65768;49.906;19.384;2022-12-16T03:46:04;97314.80;;;-3.48;92.07
76815;BME280;65768;49.906;19.384;2022-12-16T03:48:33;97306.19;;;-3.46;91.78
76815;BME280;65768;49.906;19.384;2022-12-16T03:51:02;97299.63;;;-3.48;91.93
76815;BME280;65768;49.906;19.384;2022-12-16T03:53:30;97297.40;;;-3.49;91.65
76815;BME280;65768;49.906;19.384;2022-12-16T03:55:58;97298.38;;;-3.50;91.62
76815;BME280;65768;49.906;19.384;2022-12-16T03:58:26;97293.27;;;-3.50;91.74
76815;BME280;65768;49.906;19.384;2022-12-16T04:00:54;97293.06;;;-3.51;91.61
76815;BME280;65768;49.906;19.384;2022-12-16T04:03:22;97299.95;;;-3.49;91.43
76815;BME280;65768;49.906;19.384;2022-12-16T04:05:53;97299.12;;;-3.48;91.60
76815;BME280;65768;49.906;19.384;2022-12-16T04:08:21;97290.52;;;-3.46;91.43
76815;BME280;65768;49.906;19.384;2022-12-16T04:10:52;97286.67;;;-3.44;91.50
76815;BME280;65768;49.906;19.384;2022-12-16T04:13:39;97282.12;;;-3.43;91.53
76815;BME280;65768;49.906;19.384;2022-12-16T04:16:26;97281.12;;;-3.43;91.37
76815;BME280;65768;49.906;19.384;2022-12-16T04:19:21;97290.99;;;-3.43;91.36
76815;BME280;65768;49.906;19.384;2022-12-16T04:22:19;97288.04;;;-3.44;91.49
76815;BME280;65768;49.906;19.384;2022-12-16T04:25:09;97290.92;;;-3.44;91.23
76815;BME280;65768;49.906;19.384;2022-12-16T04:27:39;97301.04;;;-3.43;91.64
76815;BME280;65768;49.906;19.384;2022-12-16T04:30:15;97306.09;;;-3.40;91.54
76815;BME280;65768;49.906;19.384;2022-12-16T04:32:57;97309.68;;;-3.40;91.54
76815;BME280;65768;49.906;19.384;2022-12-16T04:35:45;97304.37;;;-3.40;91.44
76815;BME280;65768;49.906;19.384;2022-12-16T04:38:31;97306.86;;;-3.42;91.41
76815;BME280;65768;49.906;19.384;2022-12-16T04:41:18;97308.33;;;-3.44;91.56
76815;BME280;65768;49.906;19.384;2022-12-16T04:44:05;97307.20;;;-3.42;91.80
76815;BME280;65768;49.906;19.384;2022-12-16T04:46:51;97307.19;;;-3.43;91.79
76815;BME280;65768;49.906;19.384;2022-12-16T04:49:38;97305.98;;;-3.43;91.62
76815;BME280;65768;49.906;19.384;2022-12-16T04:52:24;97304.43;;;-3.43;91.53
76815;BME280;65768;49.906;19.384;2022-12-16T04:55:11;97294.52;;;-3.44;91.85
76815;BME280;65768;49.906;19.384;2022-12-16T04:57:59;97292.27;;;-3.45;91.85
76815;BME280;65768;49.906;19.384;2022-12-16T05:00:46;97288.51;;;-3.45;92.06
76815;BME280;65768;49.906;19.384;2022-12-16T05:03:34;97280.13;;;-3.46;91.97
76815;BME280;65768;49.906;19.384;2022-12-16T05:06:20;97267.31;;;-3.43;91.86
76815;BME280;65768;49.906;19.384;2022-12-16T05:09:07;97263.00;;;-3.40;92.11
76815;BME280;65768;49.906;19.384;2022-12-16T05:11:53;97261.42;;;-3.37;92.15
76815;BME280;65768;49.906;19.384;2022-12-16T05:14:40;97260.45;;;-3.35;91.92
76815;BME280;65768;49.906;19.384;2022-12-16T05:17:26;97260.70;;;-3.33;91.65
76815;BME280;65768;49.906;19.384;2022-12-16T05:20:12;97260.62;;;-3.35;91.81
76815;BME280;65768;49.906;19.384;2022-12-16T05:23:00;97258.13;;;-3.38;92.06
76815;BME280;65768;49.906;19.384;2022-12-16T05:25:46;97249.09;;;-3.39;91.79
76815;BME280;65768;49.906;19.384;2022-12-16T05:28:33;97251.89;;;-3.37;91.95
76815;BME280;65768;49.906;19.384;2022-12-16T05:31:20;97252.92;;;-3.36;91.87
76815;BME280;65768;49.906;19.384;2022-12-16T05:34:07;97251.73;;;-3.32;92.00
76815;BME280;65768;49.906;19.384;2022-12-16T05:36:54;97259.04;;;-3.28;91.82
76815;BME280;65768;49.906;19.384;2022-12-16T05:39:40;97262.86;;;-3.26;91.92
76815;BME280;65768;49.906;19.384;2022-12-16T05:42:26;97261.91;;;-3.24;91.66
76815;BME280;65768;49.906;19.384;2022-12-16T05:45:12;97266.27;;;-3.21;91.74
76815;BME280;65768;49.906;19.384;2022-12-16T05:47:59;97270.67;;;-3.18;91.67
76815;BME280;65768;49.906;19.384;2022-12-16T05:50:46;97277.02;;;-3.17;91.67
76815;BME280;65768;49.906;19.384;2022-12-16T05:53:32;97266.20;;;-3.15;91.89
76815;BME280;65768;49.906;19.384;2022-12-16T05:56:19;97256.50;;;-3.18;91.70
76815;BME280;65768;49.906;19.384;2022-12-16T05:59:05;97265.80;;;-3.16;92.09
76815;BME280;65768;49.906;19.384;2022-12-16T06:02:11;97259.09;;;-3.13;92.13
76815;BME280;65768;49.906;19.384;2022-12-16T06:04:58;97256.05;;;-3.13;92.28
76815;BME280;65768;49.906;19.384;2022-12-16T06:08:04;97258.81;;;-3.12;92.12
76815;BME280;65768;49.906;19.384;2022-12-16T06:10:55;97254.17;;;-3.08;92.36
76815;BME280;65768;49.906;19.384;2022-12-16T06:13:49;97246.11;;;-3.05;92.38
76815;BME280;65768;49.906;19.384;2022-12-16T06:16:35;97239.83;;;-3.05;92.19
76815;BME280;65768;49.906;19.384;2022-12-16T06:19:22;97234.04;;;-3.04;92.18
76815;BME280;65768;49.906;19.384;2022-12-16T06:22:08;97234.13;;;-3.01;92.40
76815;BME280;65768;49.906;19.384;2022-12-16T06:24:55;97244.45;;;-2.99;92.46
76815;BME280;65768;49.906;19.384;2022-12-16T06:27:41;97251.36;;;-2.96;92.35
76815;BME280;65768;49.906;19.384;2022-12-16T06:30:28;97254.35;;;-2.94;92.27
76815;BME280;65768;49.906;19.384;2022-12-16T06:33:14;97253.54;;;-2.93;92.31
76815;BME280;65768;49.906;19.384;2022-12-16T06:36:01;97252.81;;;-2.90;92.14
76815;BME280;65768;49.906;19.384;2022-12-16T06:38:47;97246.31;;;-2.85;92.27
76815;BME280;65768;49.906;19.384;2022-12-16T06:41:33;97239.77;;;-2.82;92.17
76815;BME280;65768;49.906;19.384;2022-12-16T06:44:20;97238.63;;;-2.77;92.11
76815;BME280;65768;49.906;19.384;2022-12-16T06:47:07;97232.67;;;-2.71;92.18
76815;BME280;65768;49.906;19.384;2022-12-16T06:49:53;97234.10;;;-2.65;92.05
76815;BME280;65768;49.906;19.384;2022-12-16T06:52:41;97239.58;;;-2.60;92.16
76815;BME280;65768;49.906;19.384;2022-12-16T06:55:28;97243.06;;;-2.53;92.26
76815;BME280;65768;49.906;19.384;2022-12-16T06:58:15;97242.63;;;-2.45;91.93
76815;BME280;65768;49.906;19.384;2022-12-16T07:01:02;97232.80;;;-2.39;92.16
76815;BME280;65768;49.906;19.384;2022-12-16T07:03:48;97220.23;;;-2.31;92.01
76815;BME280;65768;49.906;19.384;2022-12-16T07:06:35;97221.92;;;-2.27;91.78
76815;BME280;65768;49.906;19.384;2022-12-16T07:09:22;97225.27;;;-2.24;91.83
76815;BME280;65768;49.906;19.384;2022-12-16T07:12:08;97225.45;;;-2.19;91.89
76815;BME280;65768;49.906;19.384;2022-12-16T07:14:54;97217.50;;;-2.12;91.84
76815;BME280;65768;49.906;19.384;2022-12-16T07:17:43;97212.48;;;-2.09;91.81
76815;BME280;65768;49.906;19.384;2022-12-16T07:20:30;97211.35;;;-2.06;91.66
76815;BME280;65768;49.906;19.384;2022-12-16T07:23:17;97211.23;;;-2.00;91.67
76815;BME280;65768;49.906;19.384;2022-12-16T07:26:03;97219.13;;;-1.99;91.56
76815;BME280;65768;49.906;19.384;2022-12-16T07:28:50;97220.77;;;-1.96;91.80
76815;BME280;65768;49.906;19.384;2022-12-16T07:31:37;97226.34;;;-1.92;91.83
76815;BME280;65768;49.906;19.384;2022-12-16T07:34:23;97222.75;;;-1.92;91.38
76815;BME280;65768;49.906;19.384;2022-12-16T07:37:10;97222.73;;;-1.93;91.57
76815;BME280;65768;49.906;19.384;2022-12-16T07:39:57;97217.87;;;-1.91;91.68
76815;BME280;65768;49.906;19.384;2022-12-16T07:42:46;97216.92;;;-1.88;91.58
76815;BME280;65768;49.906;19.384;2022-12-16T07:45:32;97210.34;;;-1.85;91.36
76815;BME280;65768;49.906;19.384;2022-12-16T07:48:19;97203.66;;;-1.81;91.61
76815;BME280;65768;49.906;19.384;2022-12-16T07:51:06;97203.02;;;-1.79;91.44
76815;BME280;65768;49.906;19.384;2022-12-16T07:53:52;97199.79;;;-1.79;91.48
76815;BME280;65768;49.906;19.384;2022-12-16T07:56:39;97198.49;;;-1.76;91.50
76815;BME280;65768;49.906;19.384;2022-12-16T07:59:26;97196.16;;;-1.74;91.53
76815;BME280;65768;49.906;19.384;2022-12-16T08:02:12;97198.86;;;-1.71;91.75
76815;BME280;65768;49.906;19.384;2022-12-16T08:04:59;97196.04;;;-1.67;91.23
76815;BME280;65768;49.906;19.384;2022-12-16T08:07:45;97194.27;;;-1.64;91.53
76815;BME280;65768;49.906;19.384;2022-12-16T08:10:31;97198.98;;;-1.61;91.52
76815;BME280;65768;49.906;19.384;2022-12-16T08:13:18;97207.41;;;-1.59;91.33
76815;BME280;65768;49.906;19.384;2022-12-16T08:16:04;97208.16;;;-1.63;91.31
76815;BME280;65768;49.906;19.384;2022-12-16T08:18:51;97205.70;;;-1.59;91.30
76815;BME280;65768;49.906;19.384;2022-12-16T08:21:37;97205.52;;;-1.59;91.42
76815;BME280;65768;49.906;19.384;2022-12-16T08:24:24;97201.66;;;-1.57;91.31
76815;BME280;65768;49.906;19.384;2022-12-16T08:27:10;97201.33;;;-1.51;91.14
76815;BME280;65768;49.906;19.384;2022-12-16T08:29:57;97202.80;;;-1.48;91.23
76815;BME280;65768;49.906;19.384;2022-12-16T08:32:44;97204.64;;;-1.49;91.10
76815;BME280;65768;49.906;19.384;2022-12-16T08:35:30;97210.80;;;-1.49;91.26
76815;BME280;65768;49.906;19.384;2022-12-16T08:38:17;97217.46;;;-1.49;91.23
76815;BME280;65768;49.906;19.384;2022-12-16T08:41:04;97217.55;;;-1.52;91.38
76815;BME280;65768;49.906;19.384;2022-12-16T08:43:50;97222.75;;;-1.49;91.19
76815;BME280;65768;49.906;19.384;2022-12-16T08:46:37;97222.91;;;-1.50;91.13
76815;BME280;65768;49.906;19.384;2022-12-16T08:49:24;97229.52;;;-1.46;91.12
76815;BME280;65768;49.906;19.384;2022-12-16T08:52:10;97238.60;;;-1.40;91.49
76815;BME280;65768;49.906;19.384;2022-12-16T08:54:57;97240.77;;;-1.36;91.23
76815;BME280;65768;49.906;19.384;2022-12-16T08:57:52;97243.39;;;-1.29;90.67
76815;BME280;65768;49.906;19.384;2022-12-16T09:00:39;97247.77;;;-1.20;90.63
76815;BME280;65768;49.906;19.384;2022-12-16T09:03:26;97249.34;;;-1.12;90.60
76815;BME280;65768;49.906;19.384;2022-12-16T09:06:12;97249.89;;;-1.18;90.31
76815;BME280;65768;49.906;19.384;2022-12-16T09:08:59;97255.67;;;-1.18;90.02
76815;BME280;65768;49.906;19.384;2022-12-16T09:11:46;97256.61;;;-1.10;90.27
76815;BME280;65768;49.906;19.384;2022-12-16T09:14:33;97253.59;;;-1.08;89.95
76815;BME280;65768;49.906;19.384;2022-12-16T09:17:20;97259.48;;;-1.05;90.07
76815;BME280;65768;49.906;19.384;2022-12-16T09:20:07;97271.09;;;-1.00;89.90
76815;BME280;65768;49.906;19.384;2022-12-16T09:22:54;97270.59;;;-1.05;89.77
76815;BME280;65768;49.906;19.384;2022-12-16T09:25:41;97280.34;;;-1.05;89.92
76815;BME280;65768;49.906;19.384;2022-12-16T09:28:28;97280.64;;;-1.07;89.90
76815;BME280;65768;49.906;19.384;2022-12-16T09:31:14;97283.83;;;-1.09;89.98
76815;BME280;65768;49.906;19.384;2022-12-16T09:34:02;97284.56;;;-1.07;90.20
76815;BME280;65768;49.906;19.384;2022-12-16T09:36:49;97288.57;;;-1.00;89.94
76815;BME280;65768;49.906;19.384;2022-12-16T09:39:35;97287.05;;;-0.87;89.41
76815;BME280;65768;49.906;19.384;2022-12-16T09:48:57;97289.24;;;-0.82;89.13
76815;BME280;65768;49.906;19.384;2022-12-16T09:51:47;97288.27;;;-0.80;88.76
76815;BME280;65768;49.906;19.384;2022-12-16T09:54:37;97286.29;;;-0.78;88.68
76815;BME280;65768;49.906;19.384;2022-12-16T09:57:25;97282.23;;;-0.77;88.56
76815;BME280;65768;49.906;19.384;2022-12-16T10:00:19;97295.16;;;-0.67;88.01
76815;BME280;65768;49.906;19.384;2022-12-16T10:03:31;97293.83;;;-0.48;88.09
76815;BME280;65768;49.906;19.384;2022-12-16T10:10:02;97298.34;;;0.05;86.09
76815;BME280;65768;49.906;19.384;2022-12-16T10:13:12;97300.86;;;0.09;85.42
76815;BME280;65768;49.906;19.384;2022-12-16T10:16:28;97311.29;;;0.14;85.26
76815;BME280;65768;49.906;19.384;2022-12-16T10:25:59;97313.30;;;0.32;84.99
76815;BME280;65768;49.906;19.384;2022-12-16T10:28:50;97308.31;;;0.19;85.25
76815;BME280;65768;49.906;19.384;2022-12-16T10:31:39;97308.14;;;0.18;85.08
76815;BME280;65768;49.906;19.384;2022-12-16T10:34:32;97307.97;;;0.32;84.47
76815;BME280;65768;49.906;19.384;2022-12-16T10:37:36;97307.43;;;0.52;84.23
76815;BME280;65768;49.906;19.384;2022-12-16T10:40:27;97307.73;;;0.57;83.90
76815;BME280;65768;49.906;19.384;2022-12-16T10:43:28;97301.74;;;0.57;83.03
76815;BME280;65768;49.906;19.384;2022-12-16T10:46:22;97301.69;;;0.69;82.86
76815;BME280;65768;49.906;19.384;2022-12-16T10:49:14;97290.77;;;0.85;82.76
76815;BME280;65768;49.906;19.384;2022-12-16T10:52:01;97290.94;;;0.94;81.72
76815;BME280;65768;49.906;19.384;2022-12-16T10:54:58;97293.10;;;0.90;83.68
76815;BME280;65768;49.906;19.384;2022-12-16T11:01:26;97321.52;;;0.06;86.30
76815;BME280;65768;49.906;19.384;2022-12-16T11:04:34;97316.21;;;0.20;85.57
76815;BME280;65768;49.906;19.384;2022-12-16T11:13:24;97322.04;;;0.32;86.07
76815;BME280;65768;49.906;19.384;2022-12-16T11:16:15;97332.83;;;0.19;86.34
76815;BME280;65768;49.906;19.384;2022-12-16T11:19:03;97342.73;;;0.24;85.52
76815;BME280;65768;49.906;19.384;2022-12-16T11:21:49;97349.14;;;0.01;85.99
76815;BME280;65768;49.906;19.384;2022-12-16T11:24:36;97345.78;;;-0.03;86.34
76815;BME280;65768;49.906;19.384;2022-12-16T11:27:24;97336.38;;;0.24;84.82
76815;BME280;65768;49.906;19.384;2022-12-16T11:30:19;97328.15;;;0.37;85.00
76815;BME280;65768;49.906;19.384;2022-12-16T11:33:17;97339.15;;;0.18;85.66
76815;BME280;65768;49.906;19.384;2022-12-16T11:36:14;97337.70;;;0.15;85.93
76815;BME280;65768;49.906;19.384;2022-12-16T11:39:20;97334.64;;;0.10;86.36
76815;BME280;65768;49.906;19.384;2022-12-16T11:42:19;97329.63;;;0.09;85.89
76815;BME280;65768;49.906;19.384;2022-12-16T11:45:13;97328.67;;;-0.02;86.43
76815;BME280;65768;49.906;19.384;2022-12-16T11:48:16;97338.04;;;-0.22;86.83
76815;BME280;65768;49.906;19.384;2022-12-16T11:51:11;97341.79;;;-0.53;87.74
76815;BME280;65768;49.906;19.384;2022-12-16T11:54:17;97348.88;;;-0.79;88.25
76815;BME280;65768;49.906;19.384;2022-12-16T11:57:17;97348.48;;;-0.92;88.47
76815;BME280;65768;49.906;19.384;2022-12-16T12:00:06;97348.28;;;-0.93;87.81
76815;BME280;65768;49.906;19.384;2022-12-16T12:06:03;97348.77;;;-0.82;88.10
76815;BME280;65768;49.906;19.384;2022-12-16T12:08:57;97345.96;;;-0.73;86.91
76815;BME280;65768;49.906;19.384;2022-12-16T12:12:06;97347.94;;;-0.77;86.63
76815;BME280;65768;49.906;19.384;2022-12-16T12:21:16;97357.05;;;-0.57;86.89
76815;BME280;65768;49.906;19.384;2022-12-16T12:30:22;97392.70;;;-0.83;87.86
76815;BME280;65768;49.906;19.384;2022-12-16T12:33:37;97395.25;;;-1.00;87.82
76815;BME280;65768;49.906;19.384;2022-12-16T12:36:37;97400.48;;;-1.29;88.11
76815;BME280;65768;49.906;19.384;2022-12-16T12:39:46;97408.76;;;-1.37;88.95
76815;BME280;65768;49.906;19.384;2022-12-16T12:51:35;97402.00;;;-1.45;88.73
76815;BME280;65768;49.906;19.384;2022-12-16T12:57:36;97412.29;;;-1.63;89.44
76815;BME280;65768;49.906;19.384;2022-12-16T15:23:50;97628.59;;;-2.94;91.32
76815;BME280;65768;49.906;19.384;2022-12-16T15:26:36;97631.36;;;-2.96;91.34
76815;BME280;65768;49.906;19.384;2022-12-16T15:41:54;97650.54;;;-3.02;91.71
76815;BME280;65768;49.906;19.384;2022-12-16T15:44:46;97653.11;;;-3.02;91.74
76815;BME280;65768;49.906;19.384;2022-12-16T15:47:36;97651.25;;;-3.06;91.47
76815;BME280;65768;49.906;19.384;2022-12-16T15:50:26;97652.87;;;-3.08;91.53
76815;BME280;65768;49.906;19.384;2022-12-16T15:53:37;97654.04;;;-3.08;91.55
76815;BME280;65768;49.906;19.384;2022-12-16T15:56:31;97665.52;;;-3.07;91.54
76815;BME280;65768;49.906;19.384;2022-12-16T16:02:23;97684.73;;;-3.08;91.55
76815;BME280;65768;49.906;19.384;2022-12-16T16:05:13;97686.27;;;-3.08;91.25
76815;BME280;65768;49.906;19.384;2022-12-16T16:08:00;97696.73;;;-3.10;91.54
76815;BME280;65768;49.906;19.384;2022-12-16T16:10:47;97706.35;;;-3.09;91.61
76815;BME280;65768;49.906;19.384;2022-12-16T16:13:34;97708.96;;;-3.08;91.61
76815;BME280;65768;49.906;19.384;2022-12-16T16:16:21;97712.78;;;-3.06;91.60
76815;BME280;65768;49.906;19.384;2022-12-16T16:19:15;97720.42;;;-3.10;91.36
76815;BME280;65768;49.906;19.384;2022-12-16T16:22:24;97735.66;;;-3.09;91.77
76815;BME280;65768;49.906;19.384;2022-12-16T16:25:11;97749.17;;;-3.11;91.44
76815;BME280;65768;49.906;19.384;2022-12-16T16:27:58;97746.55;;;-3.13;91.36
76815;BME280;65768;49.906;19.384;2022-12-16T16:30:45;97747.67;;;-3.14;91.30
76815;BME280;65768;49.906;19.384;2022-12-16T16:37:28;97754.26;;;-3.23;91.22
76815;BME280;65768;49.906;19.384;2022-12-16T16:40:40;97761.38;;;-3.28;91.28
76815;BME280;65768;49.906;19.384;2022-12-16T16:43:28;97757.30;;;-3.27;91.29
76815;BME280;65768;49.906;19.384;2022-12-16T16:46:34;97751.03;;;-3.30;91.34
76815;BME280;65768;49.906;19.384;2022-12-16T16:49:31;97745.33;;;-3.32;90.98
76815;BME280;65768;49.906;19.384;2022-12-16T16:52:22;97759.37;;;-3.34;91.55
76815;BME280;65768;49.906;19.384;2022-12-16T16:55:21;97774.33;;;-3.38;91.32
76815;BME280;65768;49.906;19.384;2022-12-16T16:58:15;97776.26;;;-3.41;91.45
76815;BME280;65768;49.906;19.384;2022-12-16T17:01:05;97781.26;;;-3.40;91.45
76815;BME280;65768;49.906;19.384;2022-12-16T17:03:52;97777.78;;;-3.41;91.36
76815;BME280;65768;49.906;19.384;2022-12-16T17:06:38;97775.92;;;-3.44;91.54
76815;BME280;65768;49.906;19.384;2022-12-16T17:09:25;97776.89;;;-3.45;91.20
76815;BME280;65768;49.906;19.384;2022-12-16T17:12:20;97778.41;;;-3.49;91.31
76815;BME280;65768;49.906;19.384;2022-12-16T17:15:27;97784.65;;;-3.51;91.30
76815;BME280;65768;49.906;19.384;2022-12-16T17:18:15;97794.69;;;-3.51;91.51
76815;BME280;65768;49.906;19.384;2022-12-16T17:21:02;97797.73;;;-3.51;91.56
76815;BME280;65768;49.906;19.384;2022-12-16T17:23:49;97802.63;;;-3.52;91.50
76815;BME280;65768;49.906;19.384;2022-12-16T17:26:40;97804.54;;;-3.52;91.71
76815;BME280;65768;49.906;19.384;2022-12-16T17:29:28;97801.63;;;-3.55;91.76
76815;BME280;65768;49.906;19.384;2022-12-16T17:32:15;97803.39;;;-3.58;91.64
76815;BME280;65768;49.906;19.384;2022-12-16T17:35:01;97807.55;;;-3.59;91.87
76815;BME280;65768;49.906;19.384;2022-12-16T17:37:50;97811.90;;;-3.58;91.69
76815;BME280;65768;49.906;19.384;2022-12-16T17:40:36;97817.96;;;-3.59;92.00
76815;BME280;65768;49.906;19.384;2022-12-16T17:43:23;97819.68;;;-3.59;91.77
76815;BME280;65768;49.906;19.384;2022-12-16T17:46:10;97823.60;;;-3.62;91.86
76815;BME280;65768;49.906;19.384;2022-12-16T17:48:57;97824.45;;;-3.66;92.21
76815;BME280;65768;49.906;19.384;2022-12-16T17:51:45;97832.50;;;-3.68;92.06
76815;BME280;65768;49.906;19.384;2022-12-16T17:54:31;97831.77;;;-3.69;92.31
76815;BME280;65768;49.906;19.384;2022-12-16T17:57:18;97841.72;;;-3.71;92.35
76815;BME280;65768;49.906;19.384;2022-12-16T18:00:05;97844.61;;;-3.71;92.60
76815;BME280;65768;49.906;19.384;2022-12-16T18:02:52;97845.61;;;-3.75;92.44
76815;BME280;65768;49.906;19.384;2022-12-16T18:05:42;97844.63;;;-3.78;92.55
76815;BME280;65768;49.906;19.384;2022-12-16T18:08:31;97854.14;;;-3.78;92.71
76815;BME280;65768;49.906;19.384;2022-12-16T18:11:17;97852.61;;;-3.78;92.69
76815;BME280;65768;49.906;19.384;2022-12-16T18:14:04;97850.48;;;-3.80;92.82
76815;BME280;65768;49.906;19.384;2022-12-16T18:16:54;97853.11;;;-3.78;92.82
76815;BME280;65768;49.906;19.384;2022-12-16T18:19:41;97860.77;;;-3.78;92.77
76815;BME280;65768;49.906;19.384;2022-12-16T18:22:34;97865.36;;;-3.82;92.61
76815;BME280;65768;49.906;19.384;2022-12-16T18:25:21;97868.89;;;-3.83;92.85
76815;BME280;65768;49.906;19.384;2022-12-16T18:28:08;97863.42;;;-3.83;92.95
76815;BME280;65768;49.906;19.384;2022-12-16T18:31:02;97849.64;;;-3.86;92.95